createdAt,value
2022-12-06T00:07:17.324Z,78.11253
2022-12-06T00:17:18.530Z,78.62403
2022-12-06T00:27:19.645Z,77.30987
2022-12-06T00:37:21.013Z,78.02982
2022-12-06T00:47:22.145Z,76.81962
2022-12-06T00:57:23.290Z,77.38481
2022-12-06T01:07:24.506Z,76.03455
2022-12-06T01:17:25.621Z,78.67726
2022-12-06T01:27:26.734Z,85.4797
2022-12-06T01:37:28.164Z,85.92859
2022-12-06T01:47:29.296Z,86.11857
2022-12-06T01:57:30.707Z,85.76387
2022-12-06T02:07:32.043Z,86.31342
2022-12-06T02:17:33.179Z,85.64316
2022-12-06T02:27:34.300Z,83.76243
2022-12-06T02:37:35.436Z,82.60958
2022-12-06T02:47:36.583Z,82.89791
2022-12-06T02:57:37.686Z,82.09351
2022-12-06T03:07:38.855Z,81.30628
2022-12-06T03:17:40.010Z,86.59757
2022-12-06T03:27:41.373Z,90.49228
2022-12-06T03:37:42.559Z,92.7966
2022-12-06T03:47:43.802Z,94.30544
2022-12-06T03:57:44.915Z,95.24727
2022-12-06T04:07:46.192Z,95.77848
2022-12-06T04:17:47.336Z,96.19966
2022-12-06T04:27:48.475Z,96.71495
2022-12-06T04:37:49.607Z,97.31883
2022-12-06T04:47:50.983Z,97.50312
2022-12-06T04:57:52.121Z,97.60375
2022-12-06T05:07:53.272Z,97.96093
2022-12-06T05:17:54.408Z,98.47134
2022-12-06T05:27:55.668Z,99.45459
2022-12-06T05:37:56.778Z,100
2022-12-06T05:47:57.905Z,100
2022-12-06T05:57:59.040Z,100
2022-12-06T06:08:00.289Z,100
2022-12-06T06:18:01.579Z,100
2022-12-06T06:28:03.415Z,100
2022-12-06T06:38:05.160Z,100
2022-12-06T06:48:06.828Z,100
2022-12-06T06:58:08.559Z,78.35011
2022-12-06T07:08:10.176Z,100
2022-12-06T07:18:11.981Z,100
2022-12-06T07:28:13.130Z,100
2022-12-06T07:38:14.468Z,100
2022-12-06T07:48:15.664Z,100
2022-12-06T07:58:16.774Z,100
2022-12-06T08:08:17.954Z,100
2022-12-06T08:18:19.111Z,100
2022-12-06T08:28:20.518Z,100
2022-12-06T08:38:21.626Z,100
2022-12-06T08:48:22.745Z,100
2022-12-06T08:58:23.867Z,100
2022-12-06T09:08:25.164Z,100
2022-12-06T09:18:26.551Z,100
2022-12-06T09:28:27.876Z,100
2022-12-06T09:38:28.996Z,100
2022-12-06T09:48:30.196Z,100
2022-12-06T09:58:31.656Z,100
2022-12-06T10:08:33.003Z,100
2022-12-06T10:18:34.257Z,100
2022-12-06T10:28:35.395Z,100
2022-12-06T10:38:36.527Z,100
2022-12-06T10:48:38.322Z,100
2022-12-06T10:58:39.481Z,100
2022-12-06T11:08:40.841Z,100
2022-12-06T11:18:42.026Z,100
2022-12-06T11:28:43.152Z,100
2022-12-06T11:38:44.258Z,100
2022-12-06T11:48:45.403Z,100
2022-12-06T11:58:46.879Z,100
2022-12-06T12:08:48.013Z,100
2022-12-06T12:18:49.159Z,100
2022-12-06T12:28:50.538Z,100
2022-12-06T12:38:51.644Z,100
2022-12-06T12:48:52.794Z,100
2022-12-06T12:58:54.298Z,100
2022-12-06T13:08:55.433Z,100
2022-12-06T13:18:56.558Z,100
2022-12-06T13:28:57.758Z,100
2022-12-06T13:38:58.898Z,100
2022-12-06T13:49:00.072Z,100
2022-12-06T13:59:01.447Z,100
2022-12-06T14:09:03.463Z,100
2022-12-06T14:19:05.244Z,100
2022-12-06T14:29:06.939Z,100
2022-12-06T14:39:08.675Z,78.35011
2022-12-06T14:49:10.170Z,100
2022-12-06T14:59:11.910Z,100
2022-12-06T15:09:13.053Z,97.50539
2022-12-06T15:19:14.507Z,93.45142
2022-12-06T15:29:15.652Z,91.77132
2022-12-06T15:39:16.943Z,88.09923
2022-12-06T15:49:18.144Z,91.666
2022-12-06T15:59:19.317Z,92.81986
2022-12-06T16:09:20.788Z,87.28861
2022-12-06T16:19:22.015Z,85.15077
2022-12-06T16:29:23.274Z,86.03101
2022-12-06T16:39:24.533Z,89.37112
2022-12-06T16:49:45.207Z,94.0613
2022-12-06T16:59:47.385Z,95.75182
2022-12-06T17:09:48.520Z,96.03298
2022-12-06T17:19:49.693Z,90.24723
2022-12-06T17:29:51.064Z,86.51496
2022-12-06T17:39:52.220Z,83.72566
2022-12-06T17:49:53.363Z,86.95352
2022-12-06T17:59:54.484Z,84.26982
2022-12-06T18:09:55.581Z,83.75298
2022-12-06T18:19:56.751Z,85.61418
2022-12-06T18:29:58.089Z,87.85488
2022-12-06T18:39:59.860Z,88.36966
2022-12-06T18:50:01.627Z,88.94767
2022-12-06T19:00:03.692Z,89.54953
2022-12-06T19:10:05.771Z,86.77434
2022-12-06T19:20:07.447Z,88.25444
2022-12-06T19:30:09.470Z,87.42161
2022-12-06T19:40:11.162Z,88.83231
2022-12-06T19:50:12.336Z,90.46876
2022-12-06T20:00:17.081Z,88.08786
2022-12-06T20:10:21.044Z,87.35458
2022-12-06T20:20:22.308Z,92.31045
2022-12-06T20:30:23.454Z,95.16185
2022-12-06T20:40:29.805Z,97.56424
2022-12-06T20:50:32.613Z,99.53691
2022-12-06T21:00:33.774Z,100
2022-12-06T21:10:34.914Z,100
2022-12-06T21:20:36.066Z,100
2022-12-06T21:30:37.197Z,100
2022-12-06T21:40:38.324Z,100
2022-12-06T21:50:39.570Z,100
2022-12-06T22:00:40.936Z,100
2022-12-06T22:10:42.087Z,100
2022-12-06T22:20:43.246Z,100
2022-12-06T22:30:44.431Z,100
2022-12-06T22:40:45.618Z,100
2022-12-06T22:50:46.770Z,100
2022-12-06T23:00:47.876Z,100
2022-12-06T23:10:48.998Z,100
2022-12-06T23:20:50.266Z,100
2022-12-06T23:30:51.638Z,100
2022-12-06T23:40:52.798Z,100
2022-12-06T23:50:53.924Z,100
